Time;durP1;ratioP1;P1;durP2;ratioP2;P2;SDS_P1;SDS_P2;PMS_P1;PMS_P2;Temp;Humidity;BMP_temperature;BMP_pressure;BME280_temperature;BME280_humidity;BME280_pressure;Samples;Min_cycle;Max_cycle;Signal;HPM_P1;HPM_P2
2021/04/01 00:01:59;;;;;;;51.67;31.80;;;11.50;99.90;;;;;;5077184;28;20032;-66
2021/04/01 00:04:24;;;;;;;47.30;31.60;;;11.50;99.90;;;;;;5077403;28;20025;-66
2021/04/01 00:06:50;;;;;;;56.92;33.63;;;11.50;99.90;;;;;;5075915;28;20484;-66
2021/04/01 00:09:16;;;;;;;54.10;31.50;;;11.50;99.90;;;;;;5076433;28;20048;-66
2021/04/01 00:11:41;;;;;;;54.78;31.33;;;11.50;99.90;;;;;;5077004;28;20024;-66
2021/04/01 00:14:07;;;;;;;44.47;26.88;;;11.50;99.90;;;;;;5076962;28;20047;-66
2021/04/01 00:16:34;;;;;;;41.58;27.70;;;11.50;99.90;;;;;;5076907;28;20365;-66
2021/04/01 00:19:00;;;;;;;48.13;29.30;;;11.50;99.90;;;;;;5076587;28;20032;-66
2021/04/01 00:21:26;;;;;;;46.33;29.65;;;11.50;99.90;;;;;;5076298;28;20034;-66
2021/04/01 00:23:51;;;;;;;40.58;27.10;;;11.40;99.90;;;;;;5076263;28;20103;-66
2021/04/01 00:26:17;;;;;;;50.53;28.40;;;11.40;99.90;;;;;;5076768;28;20032;-66
2021/04/01 00:28:42;;;;;;;42.53;26.35;;;11.40;99.90;;;;;;5075184;28;20465;-67
2021/04/01 00:31:08;;;;;;;39.85;26.63;;;11.40;99.90;;;;;;5076458;28;20036;-66
2021/04/01 00:33:34;;;;;;;45.50;29.30;;;11.40;99.90;;;;;;5076629;28;20028;-66
2021/04/01 00:35:59;;;;;;;46.58;28.48;;;11.40;99.90;;;;;;5076466;28;20028;-66
2021/04/01 00:38:25;;;;;;;42.55;28.58;;;11.30;99.90;;;;;;5075908;28;20027;-67
2021/04/01 00:40:50;;;;;;;43.92;27.55;;;11.30;99.90;;;;;;5076391;28;20029;-66
2021/04/01 00:43:16;;;;;;;52.15;28.15;;;11.30;99.90;;;;;;5076099;28;20032;-66
2021/04/01 00:45:42;;;;;;;41.70;28.13;;;11.20;99.90;;;;;;5076382;28;20436;-66
2021/04/01 00:48:08;;;;;;;46.45;27.45;;;11.20;99.90;;;;;;5076362;28;20020;-66
2021/04/01 00:50:34;;;;;;;42.85;26.75;;;11.10;99.90;;;;;;5075657;28;20028;-66
2021/04/01 00:53:00;;;;;;;46.53;27.60;;;11.10;99.90;;;;;;5076519;28;20025;-66
2021/04/01 00:55:26;;;;;;;42.17;25.88;;;11.00;99.90;;;;;;5075241;28;20020;-66
2021/04/01 00:57:55;;;;;;;39.70;26.00;;;11.00;99.90;;;;;;5076128;28;20416;-66
2021/04/01 01:00:25;;;;;;;47.85;26.58;;;11.00;99.90;;;;;;5075574;28;20039;-66
2021/04/01 01:02:51;;;;;;;43.83;25.48;;;11.00;99.90;;;;;;5076076;28;20024;-66
2021/04/01 01:05:18;;;;;;;42.03;26.15;;;11.00;99.90;;;;;;5075784;28;20108;-66
2021/04/01 01:07:43;;;;;;;39.75;26.08;;;11.00;99.90;;;;;;5075338;28;20099;-66
2021/04/01 01:10:12;;;;;;;42.45;26.20;;;11.00;99.90;;;;;;5075356;28;20136;-66
2021/04/01 01:12:37;;;;;;;42.83;26.20;;;10.90;99.90;;;;;;5075700;28;20027;-66
2021/04/01 01:15:05;;;;;;;44.40;25.88;;;10.90;99.90;;;;;;5075886;28;20033;-66
2021/04/01 01:17:30;;;;;;;39.47;25.65;;;10.90;99.90;;;;;;5075281;28;20027;-66
2021/04/01 01:19:56;;;;;;;43.75;27.02;;;10.90;99.90;;;;;;5075790;28;20028;-66
2021/04/01 01:22:22;;;;;;;41.10;26.63;;;10.90;99.90;;;;;;5073920;28;20025;-66
2021/04/01 01:24:49;;;;;;;45.97;26.80;;;10.80;99.90;;;;;;5075688;28;20453;-66
2021/04/01 01:27:16;;;;;;;40.78;25.52;;;10.80;99.90;;;;;;5075612;28;20528;-66
2021/04/01 01:29:41;;;;;;;42.42;25.88;;;10.80;99.90;;;;;;5075215;28;20074;-66
2021/04/01 01:32:08;;;;;;;43.60;27.95;;;10.80;99.90;;;;;;5075507;28;20104;-66
2021/04/01 01:34:35;;;;;;;46.30;26.25;;;10.70;99.90;;;;;;5075495;28;20020;-66
2021/04/01 01:37:02;;;;;;;43.03;26.63;;;10.70;99.90;;;;;;5075142;28;20021;-66
2021/04/01 01:39:28;;;;;;;48.83;27.35;;;10.70;99.90;;;;;;5075080;28;20024;-66
2021/04/01 01:41:53;;;;;;;47.78;28.13;;;10.70;99.90;;;;;;5056846;28;20066;-66
2021/04/01 01:44:19;;;;;;;44.63;26.42;;;10.60;99.90;;;;;;5074143;28;20032;-66
2021/04/01 01:46:44;;;;;;;49.95;28.55;;;10.70;99.90;;;;;;5075214;28;20378;-66
2021/04/01 01:49:10;;;;;;;47.13;27.05;;;10.60;99.90;;;;;;5074578;28;20074;-66
2021/04/01 01:51:35;;;;;;;49.05;25.83;;;10.60;99.90;;;;;;5075099;28;20031;-66
2021/04/01 01:54:01;;;;;;;42.38;25.90;;;10.60;99.90;;;;;;5074477;28;20021;-66
2021/04/01 01:56:27;;;;;;;43.03;24.02;;;10.70;99.90;;;;;;5075061;28;20485;-66
2021/04/01 01:58:55;;;;;;;40.50;25.42;;;10.70;99.90;;;;;;5075003;28;20059;-66
2021/04/01 02:01:22;;;;;;;38.70;24.35;;;10.70;99.90;;;;;;5073779;28;20016;-66
2021/04/01 02:03:48;;;;;;;46.15;26.65;;;10.80;99.90;;;;;;5074587;28;20415;-66
2021/04/01 02:06:15;;;;;;;42.58;25.90;;;10.80;99.90;;;;;;5074822;28;20151;-66
2021/04/01 02:08:41;;;;;;;42.58;24.90;;;10.80;99.90;;;;;;5073414;28;20378;-67
2021/04/01 02:11:08;;;;;;;43.10;24.85;;;10.80;99.90;;;;;;5074678;28;20025;-66
2021/04/01 02:13:34;;;;;;;40.30;25.65;;;10.80;99.90;;;;;;5074675;28;20013;-66
2021/04/01 02:16:00;;;;;;;42.88;23.85;;;10.80;99.90;;;;;;5074662;28;20028;-66
2021/04/01 02:18:28;;;;;;;42.85;24.58;;;10.80;99.90;;;;;;5074125;28;20077;-66
2021/04/01 02:20:55;;;;;;;39.65;24.15;;;10.80;99.90;;;;;;5074528;28;20024;-66
2021/04/01 02:23:24;;;;;;;39.55;24.30;;;10.90;99.90;;;;;;5074226;28;20021;-66
2021/04/01 02:25:51;;;;;;;45.38;24.42;;;10.80;99.90;;;;;;5074488;28;20032;-66
2021/04/01 02:28:19;;;;;;;43.17;24.98;;;10.90;99.90;;;;;;5073890;28;20035;-66
2021/04/01 02:30:47;;;;;;;41.17;24.30;;;10.90;99.90;;;;;;5074080;28;20024;-66
2021/04/01 02:33:13;;;;;;;41.40;24.35;;;10.90;99.90;;;;;;5074357;28;20013;-66
2021/04/01 02:35:39;;;;;;;38.13;24.15;;;10.90;99.90;;;;;;5072890;28;20489;-66
2021/04/01 02:38:06;;;;;;;50.58;25.38;;;10.90;99.90;;;;;;5074041;28;20020;-66
2021/04/01 02:40:32;;;;;;;41.38;25.40;;;10.90;99.90;;;;;;5074281;28;20020;-66
2021/04/01 02:42:58;;;;;;;44.05;25.27;;;10.90;99.90;;;;;;5074000;28;20052;-66
2021/04/01 02:45:31;;;;;;;39.42;24.73;;;11.00;99.90;;;;;;5073935;28;20028;-66
2021/04/01 02:47:57;;;;;;;44.88;24.77;;;11.00;99.90;;;;;;5074189;28;20104;-66
2021/04/01 02:50:23;;;;;;;42.78;26.50;;;11.00;99.90;;;;;;5074081;28;20036;-66
2021/04/01 02:52:49;;;;;;;38.80;24.33;;;10.90;99.90;;;;;;5074168;28;20027;-66
2021/04/01 02:55:15;;;;;;;42.47;24.90;;;11.00;99.90;;;;;;5074125;28;20020;-66
2021/04/01 02:57:41;;;;;;;45.00;25.25;;;11.00;99.90;;;;;;5073570;28;20025;-66
2021/04/01 03:00:11;;;;;;;45.80;26.83;;;10.90;99.90;;;;;;5073792;28;20112;-66
2021/04/01 03:02:40;;;;;;;43.88;26.85;;;10.90;99.90;;;;;;5074038;28;20462;-66
2021/04/01 03:05:07;;;;;;;48.33;28.33;;;10.90;99.90;;;;;;5074046;28;20025;-66
2021/04/01 03:07:36;;;;;;;49.38;29.55;;;10.90;99.90;;;;;;5073756;28;20028;-66
2021/04/01 03:10:04;;;;;;;46.80;29.10;;;11.00;99.90;;;;;;5073151;28;20048;-66
2021/04/01 03:12:30;;;;;;;51.33;30.35;;;10.90;99.90;;;;;;5073928;28;20076;-66
2021/04/01 03:14:55;;;;;;;56.72;31.20;;;10.90;99.90;;;;;;5073934;28;20033;-66
2021/04/01 03:17:21;;;;;;;54.35;30.25;;;11.00;99.90;;;;;;5072455;28;20024;-66
2021/04/01 03:19:47;;;;;;;57.53;30.88;;;11.10;99.90;;;;;;5073346;28;20032;-66
2021/04/01 03:22:12;;;;;;;54.72;28.35;;;11.10;99.90;;;;;;5073304;28;20036;-66
2021/04/01 03:24:37;;;;;;;46.17;27.63;;;11.20;99.90;;;;;;5073569;28;20032;-66
2021/04/01 03:27:04;;;;;;;49.95;28.17;;;11.20;99.90;;;;;;5073552;28;20059;-66
2021/04/01 03:29:29;;;;;;;44.83;28.65;;;11.30;99.90;;;;;;5073702;28;20029;-66
2021/04/01 03:31:55;;;;;;;46.80;29.27;;;11.40;99.90;;;;;;5075756;28;20020;-66
2021/04/01 03:34:20;;;;;;;49.75;28.88;;;11.60;99.90;;;;;;5077785;28;20065;-66
2021/04/01 03:36:46;;;;;;;50.05;28.63;;;11.60;99.90;;;;;;5077735;28;20032;-66
2021/04/01 03:39:12;;;;;;;52.53;28.33;;;11.50;99.90;;;;;;5077686;28;20064;-66
2021/04/01 03:41:38;;;;;;;47.83;28.42;;;11.50;99.90;;;;;;5077627;28;20028;-66
2021/04/01 03:44:04;;;;;;;48.08;29.55;;;11.40;99.90;;;;;;5077573;28;20024;-66
2021/04/01 03:46:29;;;;;;;48.72;29.20;;;11.40;99.90;;;;;;5077523;28;20107;-66
2021/04/01 03:48:55;;;;;;;46.08;27.90;;;11.40;99.90;;;;;;5077367;28;20033;-66
2021/04/01 03:51:20;;;;;;;45.50;26.65;;;11.40;99.90;;;;;;5076888;28;20028;-66
2021/04/01 03:53:46;;;;;;;51.40;28.67;;;11.50;99.90;;;;;;5077391;28;20032;-66
2021/04/01 03:56:11;;;;;;;48.03;27.55;;;11.50;99.90;;;;;;5076762;28;20021;-66
2021/04/01 04:01:40;;;;;;;46.10;28.02;;;11.50;99.90;;;;;;5132273;27;682095;-66
2021/04/01 04:04:16;;;;;;;48.92;28.70;;;11.50;99.90;;;;;;5131809;28;20147;-66
2021/04/01 04:07:03;;;;;;;55.92;29.20;;;11.40;99.90;;;;;;5132426;27;20019;-66
2021/04/01 04:09:42;;;;;;;53.20;28.55;;;11.40;99.90;;;;;;5131708;28;20533;-66
2021/04/01 04:12:19;;;;;;;53.97;28.25;;;11.40;99.90;;;;;;5132052;27;20076;-66
2021/04/01 04:14:50;;;;;;;44.58;28.25;;;11.40;99.90;;;;;;5132283;27;20019;-66
2021/04/01 04:17:16;;;;;;;51.15;28.92;;;11.50;99.90;;;;;;5132244;27;20464;-66
2021/04/01 04:19:41;;;;;;;56.97;28.67;;;11.50;99.90;;;;;;5132074;28;20023;-66
2021/04/01 04:22:09;;;;;;;54.30;28.83;;;11.50;99.90;;;;;;5132158;28;20023;-66
2021/04/01 04:24:36;;;;;;;49.72;28.00;;;11.50;99.90;;;;;;5131550;27;20015;-66
2021/04/01 04:27:16;;;;;;;54.35;29.70;;;11.40;99.90;;;;;;5113899;28;20019;-66
2021/04/01 04:29:42;;;;;;;53.95;30.52;;;11.40;99.90;;;;;;5131027;28;20025;-66
2021/04/01 04:32:08;;;;;;;59.35;30.48;;;11.50;99.90;;;;;;5131609;28;20094;-67
2021/04/01 04:34:34;;;;;;;56.65;29.55;;;11.50;99.90;;;;;;5131627;27;20028;-69
2021/04/01 04:37:00;;;;;;;55.00;29.58;;;11.50;99.90;;;;;;5130093;28;20050;-66
2021/04/01 04:39:26;;;;;;;57.15;30.20;;;11.70;99.90;;;;;;5131415;28;20456;-66
2021/04/01 04:41:51;;;;;;;62.58;30.10;;;11.70;99.90;;;;;;5131693;28;20034;-66
2021/04/01 04:44:17;;;;;;;57.60;30.40;;;11.70;99.90;;;;;;5131132;28;20019;-67
2021/04/01 04:46:42;;;;;;;55.15;29.08;;;11.80;99.90;;;;;;5131639;28;20023;-66
2021/04/01 04:49:08;;;;;;;59.13;29.92;;;11.70;99.90;;;;;;5131559;28;20034;-65
2021/04/01 04:51:33;;;;;;;53.75;29.02;;;11.80;99.90;;;;;;5131574;28;20050;-65
2021/04/01 04:53:59;;;;;;;54.20;28.92;;;11.70;99.90;;;;;;5131499;28;20031;-66
2021/04/01 04:56:25;;;;;;;57.90;30.05;;;11.70;99.90;;;;;;5130915;28;20023;-65
2021/04/01 04:58:56;;;;;;;53.15;29.98;;;11.70;99.90;;;;;;5131061;27;20023;-65
2021/04/01 05:06:59;;;;;;;55.05;30.45;;;11.40;99.90;;;;;;5111241;28;20028;-66
2021/04/01 05:09:25;;;;;;;50.47;28.30;;;11.40;99.90;;;;;;5110101;28;20469;-66
2021/04/01 05:11:50;;;;;;;51.00;28.40;;;11.50;99.90;;;;;;5111841;28;20032;-66
2021/04/01 05:14:16;;;;;;;55.72;28.75;;;11.60;99.90;;;;;;5111799;28;20024;-66
2021/04/01 05:16:41;;;;;;;50.92;27.45;;;11.70;99.90;;;;;;5111736;28;20513;-66
2021/04/01 05:19:09;;;;;;;51.35;27.92;;;11.70;99.90;;;;;;5111721;28;20362;-66
2021/04/01 05:21:46;;;;;;;56.40;29.10;;;11.70;99.90;;;;;;5110013;28;20423;-66
2021/04/01 05:24:11;;;;;;;50.65;28.85;;;11.60;99.90;;;;;;5111604;28;20019;-66
2021/04/01 05:26:57;;;;;;;57.03;31.33;;;11.60;99.90;;;;;;5111627;28;20473;-66
2021/04/01 05:29:33;;;;;;;56.50;29.10;;;11.60;99.90;;;;;;5111504;28;20032;-66
2021/04/01 05:31:59;;;;;;;55.72;28.98;;;11.50;99.90;;;;;;5111182;28;20020;-66
2021/04/01 05:34:26;;;;;;;54.78;29.25;;;11.50;99.90;;;;;;5111147;28;20034;-66
2021/04/01 05:36:53;;;;;;;67.60;31.27;;;11.40;99.90;;;;;;5111338;28;20345;-66
2021/04/01 05:39:21;;;;;;;62.78;30.38;;;11.40;99.90;;;;;;5111072;28;20081;-66
2021/04/01 05:41:50;;;;;;;49.45;28.48;;;11.50;99.90;;;;;;5110922;28;20541;-66
2021/04/01 05:47:16;;;;;;;58.95;30.40;;;11.60;99.90;;;;;;5109762;28;20024;-66
2021/04/01 05:49:46;;;;;;;55.30;29.05;;;11.50;99.90;;;;;;5110441;28;20049;-66
2021/04/01 05:52:55;;;;;;;57.03;29.88;;;11.50;99.90;;;;;;5109546;28;20381;-66
2021/04/01 06:03:55;;;;;;;57.53;30.60;;;11.80;99.90;;;;;;5109873;28;20136;-66
2021/04/01 06:06:29;;;;;;;59.10;30.15;;;11.90;99.90;;;;;;5110845;28;20024;-66
2021/04/01 06:09:01;;;;;;;58.95;30.08;;;12.00;99.90;;;;;;5110447;28;20050;-66
2021/04/01 06:11:27;;;;;;;63.00;31.63;;;12.00;99.90;;;;;;5110383;28;20024;-66
2021/04/01 06:14:07;;;;;;;61.78;30.15;;;12.00;99.90;;;;;;5104009;28;20354;-66
2021/04/01 06:16:42;;;;;;;60.83;30.83;;;12.00;99.90;;;;;;5091395;28;20148;-66
2021/04/01 06:19:10;;;;;;;56.90;28.63;;;12.00;99.90;;;;;;5114302;28;20081;-66
2021/04/01 06:21:40;;;;;;;58.72;29.67;;;12.00;99.90;;;;;;5086425;28;20551;-66
2021/04/01 06:24:20;;;;;;;60.75;30.60;;;12.30;99.90;;;;;;5108568;28;20095;-66
2021/04/01 06:26:53;;;;;;;52.30;28.95;;;12.80;99.90;;;;;;5109711;28;20044;-66
2021/04/01 06:29:21;;;;;;;57.35;28.75;;;13.70;99.90;;;;;;5098015;28;20023;-66
2021/04/01 06:31:49;;;;;;;60.15;28.98;;;14.80;99.90;;;;;;5104419;28;20020;-66
2021/04/01 06:34:16;;;;;;;60.35;30.90;;;15.70;99.90;;;;;;5107042;28;20033;-67
2021/04/01 06:36:50;;;;;;;64.75;31.45;;;15.90;99.90;;;;;;5104437;28;20023;-66
2021/04/01 06:39:19;;;;;;;67.28;31.67;;;16.60;99.90;;;;;;5112523;28;20023;-66
2021/04/01 06:41:45;;;;;;;56.35;30.35;;;17.00;99.90;;;;;;5099148;28;20020;-65
2021/04/01 06:44:32;;;;;;;58.00;31.20;;;17.50;99.90;;;;;;5104102;28;20016;-66
2021/04/01 06:47:07;;;;;;;61.50;31.65;;;17.90;99.90;;;;;;5110986;28;20531;-66
2021/04/01 06:49:55;;;;;;;69.00;31.50;;;18.60;99.90;;;;;;5099111;28;20026;-66
2021/04/01 06:52:25;;;;;;;55.33;30.88;;;19.20;99.90;;;;;;5105880;28;20034;-66
2021/04/01 06:55:02;;;;;;;58.35;32.67;;;19.10;99.90;;;;;;5101339;28;20028;-66
2021/04/01 06:58:00;;;;;;;56.40;32.38;;;19.10;99.90;;;;;;5096543;28;20035;-66
2021/04/01 07:00:39;;;;;;;74.63;41.50;;;19.20;99.90;;;;;;5101668;28;20098;-66
2021/04/01 07:03:26;;;;;;;77.22;44.03;;;19.50;99.90;;;;;;5095499;28;20118;-66
2021/04/01 07:05:57;;;;;;;85.18;45.63;;;19.50;99.70;;;;;;5094431;28;20461;-66
2021/04/01 07:09:13;;;;;;;82.53;45.22;;;19.50;97.90;;;;;;5095752;28;20491;-66
2021/04/01 07:11:33;;;;;;;87.32;47.80;;;19.10;99.90;;;;;;5095209;28;20024;-66
2021/04/01 07:14:06;;;;;;;87.15;45.00;;;19.10;99.90;;;;;;5095390;28;20032;-66
2021/04/01 07:16:46;;;;;;;82.38;44.22;;;19.20;99.90;;;;;;5095355;28;20059;-66
2021/04/01 07:22:58;;;;;;;80.35;42.45;;;19.00;99.90;;;;;;5087462;28;20524;-66
2021/04/01 07:47:34;;;;;;;91.38;47.95;;;22.20;83.60;;;;;;5071073;28;20025;-65
2021/04/01 07:50:23;;;;;;;86.97;46.63;;;22.00;78.60;;;;;;5081397;28;20035;-65
2021/04/01 07:52:52;;;;;;;86.63;46.88;;;22.10;78.10;;;;;;5078015;28;20029;-65
2021/04/01 08:01:13;;;;;;;88.30;47.70;;;22.70;67.30;;;;;;5070246;28;20025;-65
2021/04/01 08:09:01;;;;;;;89.90;50.15;;;22.00;68.80;;;;;;5110994;27;20298;-65
2021/04/01 08:11:32;;;;;;;94.97;51.08;;;22.10;69.80;;;;;;5103490;28;20016;-65
2021/04/01 08:14:22;;;;;;;92.05;51.42;;;22.20;70.50;;;;;;5108567;28;20488;-65
2021/04/01 08:17:04;;;;;;;89.40;50.10;;;22.60;69.00;;;;;;5102760;28;20472;-65
2021/04/01 08:19:35;;;;;;;93.22;51.88;;;23.10;63.70;;;;;;5089428;28;20450;-64
2021/04/01 08:22:01;;;;;;;86.93;50.72;;;23.00;63.80;;;;;;5069807;28;20032;-65
2021/04/01 08:24:33;;;;;;;92.47;50.90;;;23.20;64.50;;;;;;5080135;28;20039;-64
2021/04/01 08:27:27;;;;;;;92.80;51.35;;;23.50;63.00;;;;;;5089560;28;20024;-65
2021/04/01 08:33:03;;;;;;;86.35;49.60;;;23.30;61.70;;;;;;5103938;28;20493;-65
2021/04/01 08:35:29;;;;;;;86.80;48.40;;;23.60;62.90;;;;;;5099341;28;20028;-65
2021/04/01 08:38:13;;;;;;;89.53;50.65;;;24.40;58.80;;;;;;5110843;28;20107;-65
2021/04/01 08:40:41;;;;;;;84.93;49.00;;;24.10;59.60;;;;;;5108117;28;20104;-65
2021/04/01 08:43:38;;;;;;;85.10;48.55;;;24.80;58.60;;;;;;5111305;28;20022;-65
2021/04/01 08:46:44;;;;;;;90.78;49.53;;;24.50;57.60;;;;;;5110580;28;20438;-65
2021/04/01 08:49:24;;;;;;;85.97;50.03;;;24.70;56.80;;;;;;5073571;28;20393;-65
2021/04/01 08:52:29;;;;;;;86.95;45.83;;;24.80;55.70;;;;;;5099497;28;20024;-66
2021/04/01 08:55:09;;;;;;;75.43;45.08;;;24.50;58.10;;;;;;5106753;28;20392;-66
2021/04/01 09:00:14;;;;;;;82.15;46.85;;;25.30;53.00;;;;;;5112214;27;20396;-65
2021/04/01 09:02:47;;;;;;;78.40;45.65;;;24.40;53.70;;;;;;5111657;28;20070;-65
2021/04/01 09:05:12;;;;;;;83.70;46.60;;;24.40;55.10;;;;;;5111259;28;20024;-65
2021/04/01 09:07:43;;;;;;;80.82;44.92;;;25.10;52.70;;;;;;5111212;28;20036;-65
2021/04/01 09:10:16;;;;;;;74.22;44.33;;;25.50;51.10;;;;;;5111705;28;20016;-65
2021/04/01 09:12:48;;;;;;;76.20;43.50;;;25.30;50.60;;;;;;5111731;28;20050;-65
2021/04/01 09:15:21;;;;;;;80.55;44.80;;;25.90;50.60;;;;;;5111008;28;20032;-65
2021/04/01 09:17:48;;;;;;;78.80;46.42;;;25.80;50.00;;;;;;5108395;28;20047;-65
2021/04/01 09:22:56;;;;;;;77.97;45.17;;;25.00;52.60;;;;;;5111936;27;20352;-65
2021/04/01 09:25:35;;;;;;;78.30;46.20;;;25.30;52.50;;;;;;5111921;28;20020;-65
2021/04/01 09:28:04;;;;;;;75.38;44.65;;;25.40;53.70;;;;;;5111926;28;20407;-65
2021/04/01 09:30:30;;;;;;;83.57;44.97;;;26.10;50.10;;;;;;5100997;28;20022;-65
2021/04/01 09:33:01;;;;;;;78.90;45.45;;;25.80;50.90;;;;;;5081842;28;20052;-65
2021/04/01 09:35:28;;;;;;;79.70;46.65;;;25.60;50.90;;;;;;5070789;28;20021;-65
2021/04/01 09:37:59;;;;;;;76.95;45.67;;;25.70;51.00;;;;;;5069639;28;20116;-65
2021/04/01 09:40:34;;;;;;;79.78;47.05;;;25.40;52.30;;;;;;5080349;28;20373;-65
2021/04/01 09:43:20;;;;;;;84.30;45.97;;;24.30;55.20;;;;;;5091228;28;20020;-65
2021/04/01 09:45:49;;;;;;;80.63;45.13;;;25.10;52.90;;;;;;5091133;28;20017;-65
2021/04/01 09:48:17;;;;;;;79.70;46.08;;;25.00;52.70;;;;;;5091063;28;20024;-65
2021/04/01 09:50:44;;;;;;;79.00;45.28;;;25.40;51.40;;;;;;5081383;28;20017;-65
2021/04/01 09:53:26;;;;;;;80.18;45.85;;;25.70;51.40;;;;;;5070664;28;20043;-65
2021/04/01 09:55:54;;;;;;;80.20;45.95;;;25.40;53.50;;;;;;5079291;28;20017;-65
2021/04/01 09:58:31;;;;;;;78.95;45.28;;;25.90;51.10;;;;;;5097049;28;20062;-65
2021/04/01 10:01:04;;;;;;;76.88;43.08;;;25.60;49.80;;;;;;5110768;28;20479;-65
2021/04/01 10:03:40;;;;;;;79.47;44.20;;;25.10;49.30;;;;;;5091994;28;20524;-65
2021/04/01 10:06:06;;;;;;;75.45;45.28;;;25.60;50.10;;;;;;5090396;28;20481;-65
2021/04/01 10:08:36;;;;;;;73.22;43.65;;;26.20;50.20;;;;;;5090709;28;20115;-65
2021/04/01 10:11:17;;;;;;;79.07;46.65;;;26.30;48.40;;;;;;5101292;28;20099;-65
2021/04/01 10:13:43;;;;;;;83.15;45.97;;;25.60;49.20;;;;;;5087521;28;20073;-65
2021/04/01 10:16:24;;;;;;;77.88;46.70;;;25.70;50.70;;;;;;5090418;28;20457;-65
2021/04/01 10:18:51;;;;;;;83.15;45.95;;;26.40;51.40;;;;;;5090463;28;20024;-65
2021/04/01 10:21:17;;;;;;;77.25;47.55;;;25.70;51.50;;;;;;5085455;28;20040;-65
2021/04/01 10:23:45;;;;;;;79.18;46.05;;;25.80;50.10;;;;;;5075265;28;20043;-65
2021/04/01 10:26:13;;;;;;;72.50;43.13;;;25.60;50.10;;;;;;5088918;28;20031;-65
2021/04/01 10:28:57;;;;;;;74.60;43.30;;;26.00;49.00;;;;;;5090292;28;20449;-65
2021/04/01 10:31:23;;;;;;;69.53;40.25;;;26.30;48.00;;;;;;5069775;28;20442;-65
2021/04/01 10:34:27;;;;;;;71.15;40.03;;;26.00;46.30;;;;;;5069753;28;20031;-65
2021/04/01 10:36:53;;;;;;;72.35;40.20;;;25.50;47.80;;;;;;5066395;28;20401;-66
2021/04/01 10:39:21;;;;;;;65.13;38.80;;;24.70;47.60;;;;;;5074684;28;20024;-66
2021/04/01 10:41:49;;;;;;;70.28;39.90;;;25.70;49.40;;;;;;5075594;28;20090;-66
2021/04/01 10:44:17;;;;;;;70.88;41.50;;;26.00;48.70;;;;;;5075816;28;20024;-66
2021/04/01 10:46:49;;;;;;;69.35;39.90;;;26.20;47.00;;;;;;5076501;28;20100;-66
2021/04/01 10:49:19;;;;;;;71.07;39.35;;;25.80;48.40;;;;;;5089011;28;20103;-66
2021/04/01 10:51:56;;;;;;;64.07;37.95;;;25.70;47.10;;;;;;5096229;28;20042;-67
2021/04/01 10:54:24;;;;;;;68.00;39.10;;;25.70;48.50;;;;;;5074838;28;20431;-66
2021/04/01 10:56:55;;;;;;;68.50;38.42;;;25.60;47.30;;;;;;5057725;28;20100;-66
2021/04/01 10:59:43;;;;;;;67.80;41.45;;;25.10;50.30;;;;;;5069962;28;20035;-66
2021/04/01 11:02:18;;;;;;;73.15;41.58;;;25.70;47.60;;;;;;5088898;28;20024;-66
2021/04/01 11:04:47;;;;;;;74.03;43.75;;;25.00;50.00;;;;;;5088030;28;20020;-66
2021/04/01 11:07:15;;;;;;;73.95;44.10;;;23.70;50.70;;;;;;5075448;28;20017;-66
2021/04/01 11:09:48;;;;;;;77.47;46.70;;;23.40;52.60;;;;;;5075882;28;20108;-66
2021/04/01 11:12:18;;;;;;;80.13;46.40;;;23.10;54.90;;;;;;5076029;28;20063;-66
2021/04/01 11:14:49;;;;;;;80.60;46.55;;;22.50;57.60;;;;;;5075468;28;20021;-65
2021/04/01 11:17:18;;;;;;;81.18;48.78;;;22.70;56.10;;;;;;5075389;28;20105;-66
2021/04/01 11:19:45;;;;;;;78.75;47.10;;;23.20;56.70;;;;;;5073078;28;20032;-66
2021/04/01 11:22:12;;;;;;;92.13;50.35;;;24.10;55.30;;;;;;5064515;28;20037;-66
2021/04/01 11:24:38;;;;;;;88.55;51.67;;;23.90;54.50;;;;;;5072032;28;20028;-66
2021/04/01 11:27:07;;;;;;;83.40;51.03;;;23.60;55.80;;;;;;5075687;28;20098;-66
2021/04/01 11:29:33;;;;;;;98.13;56.17;;;23.10;57.60;;;;;;5075381;28;20017;-66
2021/04/01 11:32:20;;;;;;;95.45;56.60;;;23.10;57.50;;;;;;5075301;28;20090;-66
2021/04/01 11:34:47;;;;;;;97.65;57.60;;;23.10;58.00;;;;;;5069042;28;20090;-66
2021/04/01 11:37:17;;;;;;;105.93;61.17;;;22.30;62.30;;;;;;5075559;28;20031;-65
2021/04/01 11:39:44;;;;;;;116.35;64.03;;;22.50;60.60;;;;;;5074610;28;20416;-66
2021/04/01 11:42:12;;;;;;;121.28;61.88;;;21.60;62.10;;;;;;5060772;28;20029;-65
2021/04/01 11:44:39;;;;;;;115.90;62.03;;;20.90;62.90;;;;;;5068486;28;20105;-65
2021/04/01 11:47:23;;;;;;;121.55;62.47;;;21.10;70.00;;;;;;5075285;28;20016;-65
2021/04/01 11:49:50;;;;;;;118.95;63.65;;;22.10;61.30;;;;;;5065252;28;20481;-66
2021/04/01 11:52:18;;;;;;;115.93;65.28;;;21.40;63.90;;;;;;5070508;28;20028;-66
2021/04/01 11:54:44;;;;;;;124.40;67.00;;;20.90;71.40;;;;;;5065927;28;20107;-66
2021/04/01 11:57:19;;;;;;;121.80;67.18;;;20.40;70.10;;;;;;5054819;28;20439;-65
2021/04/01 11:59:58;;;;;;;116.88;64.00;;;19.80;76.70;;;;;;5054530;28;20107;-65
2021/04/01 12:02:26;;;;;;;112.43;61.65;;;19.90;80.40;;;;;;5055575;28;20466;-65
2021/04/01 12:04:54;;;;;;;114.72;63.13;;;19.80;80.10;;;;;;5058269;28;20037;-65
2021/04/01 12:07:20;;;;;;;115.13;60.53;;;19.70;76.30;;;;;;5056111;28;20482;-65
2021/04/01 12:09:48;;;;;;;105.45;56.38;;;19.40;84.30;;;;;;5054911;28;20370;-65
2021/04/01 12:12:15;;;;;;;106.63;53.95;;;19.40;79.10;;;;;;5074770;28;20523;-65
2021/04/01 12:14:43;;;;;;;110.82;56.83;;;19.30;83.90;;;;;;5060560;28;20380;-66
2021/04/01 12:17:08;;;;;;;111.05;59.70;;;20.00;81.80;;;;;;5052863;28;20096;-66
2021/04/01 12:19:35;;;;;;;103.22;57.80;;;19.60;89.30;;;;;;5054418;28;20036;-66
2021/04/01 12:22:07;;;;;;;105.70;56.80;;;19.70;89.00;;;;;;5054116;28;20064;-66
2021/04/01 12:24:34;;;;;;;100.82;55.58;;;19.30;90.50;;;;;;5053500;28;20470;-66
2021/04/01 12:27:00;;;;;;;87.30;47.95;;;19.40;94.60;;;;;;5036304;28;20025;-66
2021/04/01 12:29:27;;;;;;;82.10;43.25;;;20.00;91.40;;;;;;5053497;28;20116;-66
2021/04/01 12:31:56;;;;;;;70.70;38.10;;;19.50;91.70;;;;;;5054382;28;20017;-66
2021/04/01 12:34:30;;;;;;;68.95;36.33;;;19.40;92.10;;;;;;5073966;28;20357;-66
2021/04/01 12:37:01;;;;;;;59.10;31.67;;;19.70;91.40;;;;;;5074338;28;20031;-66
2021/04/01 12:39:30;;;;;;;55.28;28.90;;;19.10;91.60;;;;;;5070224;28;20376;-65
2021/04/01 12:41:55;;;;;;;49.75;29.02;;;19.00;94.60;;;;;;5074276;28;20024;-65
2021/04/01 12:44:31;;;;;;;59.50;30.60;;;18.60;94.20;;;;;;5074918;28;20044;-65
2021/04/01 12:46:57;;;;;;;55.33;29.63;;;18.60;95.30;;;;;;5074286;28;20027;-66
2021/04/01 12:49:31;;;;;;;48.17;26.65;;;19.10;94.50;;;;;;5073790;28;20366;-66
2021/04/01 12:52:01;;;;;;;47.40;26.30;;;19.70;93.10;;;;;;5064212;28;20104;-66
2021/04/01 12:54:32;;;;;;;44.22;24.65;;;19.20;94.40;;;;;;5088487;28;20047;-66
2021/04/01 12:57:01;;;;;;;43.20;24.05;;;19.90;94.30;;;;;;5072808;28;20024;-66
2021/04/01 12:59:32;;;;;;;41.72;23.23;;;19.50;94.50;;;;;;5053010;28;20504;-66
2021/04/01 13:02:08;;;;;;;37.08;22.25;;;19.40;96.20;;;;;;5052279;28;20041;-66
2021/04/01 13:04:35;;;;;;;31.38;20.25;;;19.20;96.40;;;;;;5053749;28;20104;-66
2021/04/01 13:10:39;;;;;;;31.70;19.75;;;19.40;97.90;;;;;;5112246;27;20351;-67
2021/04/01 13:12:41;;;;;;;30.30;18.95;;;18.40;99.90;;;;;;5111166;28;20089;-66
2021/04/01 13:15:07;;;;;;;34.70;18.73;;;18.80;99.90;;;;;;5109499;28;20020;-66
2021/04/01 13:17:33;;;;;;;27.88;17.60;;;19.50;99.90;;;;;;5092935;28;20070;-67
2021/04/01 13:19:58;;;;;;;26.90;16.67;;;19.60;98.70;;;;;;5104771;28;20029;-67
2021/04/01 13:22:27;;;;;;;29.58;17.90;;;19.80;98.90;;;;;;5096900;28;20020;-67
2021/04/01 13:25:07;;;;;;;30.67;16.58;;;19.10;99.30;;;;;;5090106;28;20031;-66
2021/04/01 13:27:34;;;;;;;27.33;15.80;;;18.80;99.90;;;;;;5108171;28;20049;-66
2021/04/01 13:30:02;;;;;;;22.42;13.52;;;19.40;99.80;;;;;;5100314;28;20012;-67
2021/04/01 13:35:19;;;;;;;22.67;13.73;;;19.10;98.40;;;;;;5090264;28;20021;-66
2021/04/01 13:37:54;;;;;;;21.08;12.10;;;17.90;99.90;;;;;;5090413;28;20024;-66
2021/04/01 13:40:21;;;;;;;19.90;11.93;;;17.80;99.90;;;;;;5090221;28;20020;-67
2021/04/01 13:42:52;;;;;;;20.55;11.30;;;18.20;99.90;;;;;;5090408;28;20030;-67
2021/04/01 13:45:21;;;;;;;24.30;11.45;;;18.30;99.90;;;;;;5089692;28;20032;-66
2021/04/01 13:47:52;;;;;;;19.02;10.32;;;18.30;99.90;;;;;;5088096;28;20041;-66
2021/04/01 13:50:21;;;;;;;14.73;7.15;;;18.20;99.90;;;;;;5096492;28;20028;-67
2021/04/01 13:55:38;;;;;;;20.08;7.65;;;18.00;99.90;;;;;;5112026;27;20424;-65